^^
MeteoGriva-Weather Station Historical Data
Daily Summary for April 19, 2020 Units:  Metric    English   Both
Daily Weekly Monthly Yearly Custom
  High: Low: Average:
Temperature: 17.1 °C 6.2 °C 10.9 °C
Dew Point: 10.9 °C 5.5 °C 7.8 °C
Humidity: 96% 63.6% 81%
Wind Speed: 8km/h 0km/h 0.7km/h
Wind Gust: 20.1km/h - -
Wind- - SW
Pressure: 1026.8 hPa 1018.6 hPa -
Precipitation: 0.0 mm    
Historical Graphs
 
 
Tabular Data for April 19, 2020
Time Temperature Dew Point Pressure Wind Wind Speed Wind Gust Humidity Rainfall Rate (Hourly) solar
00:04 10.3 °C 7.9 °C 1026.8 hPa NW 1.7 km/h 12.2 km/h 85.2% 0.0 mm 0 W/m2
00:09 10.3 °C 7.9 °C 1026.4 hPa North 2.1 km/h 12.2 km/h 85% 0.0 mm 0 W/m2
00:14 10.4 °C 8 °C 1026.8 hPa NNW 1.4 km/h 12.2 km/h 85% 0.0 mm 0 W/m2
00:19 10.4 °C 8 °C 1026.8 hPa NE 2.7 km/h 12.2 km/h 84.9% 0.0 mm 0 W/m2
00:24 10.4 °C 7.8 °C 1026.8 hPa NW 3 km/h 12.2 km/h 84% 0.0 mm 0 W/m2
00:29 10.4 °C 8 °C 1026.8 hPa NW 0.6 km/h 7.9 km/h 84.9% 0.0 mm 0 W/m2
00:34 10.4 °C 8 °C 1026.8 hPa NW 2 km/h 12.2 km/h 85% 0.0 mm 0 W/m2
00:39 10.4 °C 7.9 °C 1026.8 hPa NNW 2.9 km/h 12.2 km/h 84.6% 0.0 mm 0 W/m2
00:44 10.4 °C 7.8 °C 1026.8 hPa NW 2.3 km/h 12.2 km/h 84% 0.0 mm 0 W/m2
00:49 10.4 °C 7.7 °C 1026.8 hPa North 1.3 km/h 12.2 km/h 83.6% 0.0 mm 0 W/m2
00:54 10.5 °C 7.8 °C 1026.8 hPa NW 1.9 km/h 7.9 km/h 83.6% 0.0 mm 0 W/m2
00:59 10.6 °C 7.8 °C 1026.4 hPa NW 1.4 km/h 12.2 km/h 83% 0.0 mm 0 W/m2
01:04 10.6 °C 7.8 °C 1026.8 hPa North 5.7 km/h 12.2 km/h 82.8% 0.0 mm 0 W/m2
01:09 10.6 °C 7.8 °C 1026.4 hPa NNW 0.7 km/h 12.2 km/h 82.8% 0.0 mm 0 W/m2
01:14 10.8 °C 7.9 °C 1026.4 hPa NNE 1.3 km/h 12.2 km/h 82.5% 0.0 mm 0 W/m2
01:19 10.8 °C 7.9 °C 1026.4 hPa NNE 0.6 km/h 12.2 km/h 82% 0.0 mm 0 W/m2
01:24 10.8 °C 7.9 °C 1026.4 hPa North 2.2 km/h 7.9 km/h 82% 0.0 mm 0 W/m2
01:29 10.8 °C 7.9 °C 1026.4 hPa NNW 4.7 km/h 12.2 km/h 82.1% 0.0 mm 0 W/m2
01:34 10.9 °C 8 °C 1026.4 hPa NNW 2.2 km/h 12.2 km/h 82.3% 0.0 mm 0 W/m2
01:39 11 °C 8.1 °C 1026.4 hPa NNW 2.5 km/h 12.2 km/h 82.7% 0.0 mm 0 W/m2
01:44 10.9 °C 8.1 °C 1026.4 hPa NNW 5.6 km/h 12.2 km/h 83% 0.0 mm 0 W/m2
01:49 10.9 °C 8.1 °C 1026.4 hPa NNW 2.3 km/h 12.2 km/h 83% 0.0 mm 0 W/m2
01:54 10.9 °C 8.1 °C 1026.4 hPa NNW 2.2 km/h 12.2 km/h 83% 0.0 mm 0 W/m2
01:59 10.8 °C 8 °C 1026.4 hPa NNW 3.1 km/h 12.2 km/h 83% 0.0 mm 0 W/m2
02:04 10.8 °C 8 °C 1026.1 hPa North 2.7 km/h 12.2 km/h 83% 0.0 mm 0 W/m2
02:09 10.8 °C 8 °C 1026.4 hPa NNW 3.4 km/h 12.2 km/h 83% 0.0 mm 0 W/m2
02:14 10.8 °C 8 °C 1026.4 hPa NNW 3.7 km/h 12.2 km/h 83% 0.0 mm 0 W/m2
02:18 10.8 °C 8 °C 1026.1 hPa North 8 km/h 16.3 km/h 83% 0.0 mm 0 W/m2
02:24 10.8 °C 8 °C 1026.4 hPa NNW 3.1 km/h 12.2 km/h 83% 0.0 mm 0 W/m2
02:29 10.8 °C 8 °C 1026.4 hPa NNW 2.2 km/h 12.2 km/h 83% 0.0 mm 0 W/m2
02:34 10.8 °C 8 °C 1026.4 hPa NNW 3.3 km/h 20.1 km/h 83.1% 0.0 mm 0 W/m2
02:39 10.8 °C 8 °C 1026.4 hPa NW 2 km/h 20.1 km/h 83% 0.0 mm 0 W/m2
02:44 10.8 °C 8.2 °C 1026.1 hPa North 0.3 km/h 7.9 km/h 84% 0.0 mm 0 W/m2
02:49 10.8 °C 8.2 °C 1026.4 hPa Calm   4 km/h 84% 0.0 mm 0 W/m2
02:54 10.7 °C 8.1 °C 1026.1 hPa Calm     84% 0.0 mm 0 W/m2
02:59 10.6 °C 8.3 °C 1026.1 hPa Calm     85.3% 0.0 mm 0 W/m2
03:04 10.6 °C 8.3 °C 1026.1 hPa North 0.3 km/h 4 km/h 85.8% 0.0 mm 0 W/m2
03:09 10.6 °C 8.2 °C 1026.1 hPa NNW 1.2 km/h 16.3 km/h 85% 0.0 mm 0 W/m2
03:14 10.6 °C 8.2 °C 1026.1 hPa NNW 1.8 km/h 16.3 km/h 85% 0.0 mm 0 W/m2
03:18 10.5 °C 8.2 °C 1026.1 hPa NNE 4.2 km/h 12.2 km/h 85.5% 0.0 mm 0 W/m2
03:24 10.6 °C 8.1 °C 1026.1 hPa NNW 3.6 km/h 12.2 km/h 84.4% 0.0 mm 0 W/m2
03:29 10.6 °C 8.1 °C 1026.1 hPa NW 2.6 km/h 12.2 km/h 84.3% 0.0 mm 0 W/m2
03:34 10.7 °C 8.1 °C 1026.1 hPa NNW 4.6 km/h 12.2 km/h 84% 0.0 mm 0 W/m2
03:39 10.8 °C 8.2 °C 1025.7 hPa NW 4.1 km/h 16.3 km/h 84% 0.0 mm 0 W/m2
03:44 10.8 °C 8.2 °C 1025.7 hPa NNW 1.3 km/h 12.2 km/h 84% 0.0 mm 0 W/m2
03:49 10.8 °C 8.3 °C 1025.7 hPa NNW 1.7 km/h 12.2 km/h 84.9% 0.0 mm 0 W/m2
03:54 10.7 °C 8.3 °C 1025.7 hPa NW 0.2 km/h 7.9 km/h 85% 0.0 mm 0 W/m2
03:59 10.6 °C 8.2 °C 1025.7 hPa North 2.4 km/h 12.2 km/h 84.9% 0.0 mm 0 W/m2
04:04 10.6 °C 8 °C 1025.7 hPa NNW 3.1 km/h 12.2 km/h 84.1% 0.0 mm 0 W/m2
04:09 10.6 °C 8.2 °C 1025.7 hPa NNW 1.9 km/h 7.9 km/h 85% 0.0 mm 0 W/m2
04:14 10.6 °C 8.2 °C 1025.7 hPa NNW 2.8 km/h 12.2 km/h 85% 0.0 mm 0 W/m2
04:19 10.5 °C 8.1 °C 1025.7 hPa NNW 1.6 km/h 7.9 km/h 84.9% 0.0 mm 0 W/m2
04:24 10.5 °C 8.1 °C 1025.7 hPa NNW 1.6 km/h 7.9 km/h 85% 0.0 mm 0 W/m2
04:29 10.5 °C 8.1 °C 1025.7 hPa NW 1.6 km/h 12.2 km/h 85% 0.0 mm 0 W/m2
04:34 10.5 °C 8.2 °C 1025.7 hPa NNW 2.7 km/h 12.2 km/h 85% 0.0 mm 0 W/m2
04:39 10.5 °C 8.1 °C 1025.7 hPa NNW 1.3 km/h 7.9 km/h 85% 0.0 mm 0 W/m2
04:44 10.5 °C 8.1 °C 1025.7 hPa Calm   7.9 km/h 85% 0.0 mm 0 W/m2
04:49 10.5 °C 8.1 °C 1025.7 hPa Calm   7.9 km/h 85.2% 0.0 mm 0 W/m2
04:54 10.5 °C 8.2 °C 1025.7 hPa Calm   7.9 km/h 85.3% 0.0 mm 0 W/m2
04:59 10.5 °C 8.1 °C 1025.7 hPa Calm     85.1% 0.0 mm 0 W/m2
05:04 10.5 °C 8.1 °C 1025.7 hPa NNE 1.3 km/h 7.9 km/h 85% 0.0 mm 0 W/m2
05:09 10.5 °C 8.1 °C 1025.7 hPa NW 2.1 km/h 7.9 km/h 85% 0.0 mm 0 W/m2
05:14 10.5 °C 8.1 °C 1025.7 hPa NNE 1 km/h 7.9 km/h 85% 0.0 mm 0 W/m2
05:19 10.4 °C 8.2 °C 1025.7 hPa Calm     86% 0.0 mm 0 W/m2
05:24 10.4 °C 8.2 °C 1025.7 hPa Calm   4 km/h 86% 0.0 mm 0 W/m2
05:29 10.4 °C 8.2 °C 1025.7 hPa Calm   4 km/h 86% 0.0 mm 0 W/m2
05:34 10.3 °C 8.1 °C 1025.4 hPa Calm     86.3% 0.0 mm 0 W/m2
05:39 10.1 °C 8 °C 1025.7 hPa Calm     87% 0.0 mm 0 W/m2
05:44 10 °C 7.9 °C 1025.7 hPa Calm     87% 0.0 mm 0 W/m2
05:49 10 °C 8 °C 1025.7 hPa Calm     87.7% 0.0 mm 0 W/m2
05:54 10 °C 7.8 °C 1025.4 hPa Calm     86.5% 0.0 mm 0 W/m2
05:59 10 °C 7.9 °C 1025.4 hPa Calm     86.8% 0.0 mm 0 W/m2
06:04 10 °C 8 °C 1025.7 hPa Calm     87.7% 0.0 mm 0 W/m2
06:09 9.9 °C 8 °C 1025.4 hPa Calm     87.8% 0.0 mm 0 W/m2
06:14 9.7 °C 7.6 °C 1025.4 hPa Calm     87% 0.0 mm 0 W/m2
06:19 9.3 °C 7.5 °C 1025.4 hPa Calm     88.3% 0.0 mm 0 W/m2
06:24 9.3 °C 7.4 °C 1025.4 hPa Calm     88.2% 0.0 mm 0 W/m2
06:29 9.2 °C 7.3 °C 1025.4 hPa Calm     88% 0.0 mm 0 W/m2
06:34 9.2 °C 7.3 °C 1025.4 hPa Calm     88% 0.0 mm 0 W/m2
06:39 9.1 °C 7.2 °C 1025.1 hPa Calm     87.6% 0.0 mm 0 W/m2
06:44 9.1 °C 7.1 °C 1025.4 hPa NNW 0.2 km/h 4 km/h 87.3% 0.0 mm 0 W/m2
06:49 9.1 °C 7.1 °C 1025.4 hPa Calm     87.2% 0.0 mm 0 W/m2
06:54 9.1 °C 7.2 °C 1025.4 hPa Calm     88% 0.0 mm 0 W/m2
06:59 8.8 °C 6.8 °C 1025.4 hPa Calm     87.8% 0.0 mm 0 W/m2
07:04 8.8 °C 6.7 °C 1025.1 hPa Calm     86.6% 0.0 mm 0 W/m2
07:09 8.8 °C 6.6 °C 1025.4 hPa Calm     86% 0.0 mm 0 W/m2
07:14 8.9 °C 6.7 °C 1025.4 hPa Calm     86.1% 0.0 mm 0 W/m2
07:19 8.6 °C 6.7 °C 1025.4 hPa Calm     87.8% 0.0 mm 0 W/m2
07:24 8.6 °C 6.8 °C 1025.4 hPa Calm     88.4% 0.0 mm 0 W/m2
07:29 8.6 °C 6.7 °C 1025.4 hPa Calm     87.7% 0.0 mm 3 W/m2
07:34 8.6 °C 6.6 °C 1025.4 hPa Calm     87.3% 0.0 mm 7 W/m2
07:39 8.9 °C 6.9 °C 1025.4 hPa Calm     86.9% 0.0 mm 12 W/m2
07:44 8.9 °C 6.7 °C 1025.4 hPa Calm     86% 0.0 mm 18 W/m2
07:49 9 °C 6.6 °C 1025.4 hPa Calm     85.2% 0.0 mm 24 W/m2
07:54 9.1 °C 6.6 °C 1025.4 hPa Calm     84.4% 0.0 mm 26 W/m2
07:59 9.6 °C 7.1 °C 1025.4 hPa Calm     84.4% 0.0 mm 26 W/m2
08:04 9.6 °C 7.1 °C 1025.7 hPa Calm     84.6% 0.0 mm 35 W/m2
08:09 9.7 °C 7 °C 1025.4 hPa Calm     83.2% 0.0 mm 45 W/m2
08:14 9.8 °C 6.9 °C 1025.4 hPa NNW 0.7 km/h 7.9 km/h 82.1% 0.0 mm 47 W/m2
08:19 10.4 °C 7.5 °C 1025.7 hPa Calm     82% 0.0 mm 40 W/m2
08:24 10.4 °C 7.5 °C 1025.7 hPa NNW 1.3 km/h 7.9 km/h 82% 0.0 mm 49 W/m2
08:29 10.4 °C 7.5 °C 1025.7 hPa NNE 0.1 km/h 7.9 km/h 81.7% 0.0 mm 81 W/m2
08:34 10.5 °C 7.3 °C 1025.7 hPa NNW 1.3 km/h 7.9 km/h 80.1% 0.0 mm 81 W/m2
08:39 11 °C 7.8 °C 1025.4 hPa North 0.4 km/h 7.9 km/h 80.7% 0.0 mm 62 W/m2
08:44 11.1 °C 8 °C 1025.7 hPa North 0.4 km/h 7.9 km/h 81% 0.0 mm 58 W/m2
08:49 11 °C 8 °C 1025.7 hPa NE 0.1 km/h 4 km/h 81.9% 0.0 mm 53 W/m2
08:54 10.9 °C 7.9 °C 1025.7 hPa Calm   4 km/h 82% 0.0 mm 54 W/m2
08:59 10.7 °C 7.8 °C 1025.4 hPa Calm     82% 0.0 mm 69 W/m2
09:04 10.7 °C 7.5 °C 1025.7 hPa Calm     80.6% 0.0 mm 79 W/m2
09:09 10.8 °C 7.6 °C 1025.7 hPa Calm     80.6% 0.0 mm 42 W/m2
09:14 10.8 °C 7.8 °C 1025.7 hPa Calm     81.5% 0.0 mm 53 W/m2
09:19 10.8 °C 7.9 °C 1025.7 hPa Calm     82% 0.0 mm 52 W/m2
09:24 10.8 °C 7.9 °C 1025.7 hPa Calm     82% 0.0 mm 63 W/m2
09:29 10.8 °C 7.9 °C 1025.7 hPa Calm     82% 0.0 mm 81 W/m2
09:34 10.9 °C 7.8 °C 1025.7 hPa Calm     81.2% 0.0 mm 108 W/m2
09:39 11.7 °C 8.4 °C 1025.7 hPa Calm     80% 0.0 mm 110 W/m2
09:44 11.9 °C 8.4 °C 1025.7 hPa Calm     79.1% 0.0 mm 118 W/m2
09:49 12 °C 8.3 °C 1025.7 hPa Calm     78% 0.0 mm 117 W/m2
09:54 12.1 °C 8.3 °C 1025.7 hPa Calm     77.4% 0.0 mm 111 W/m2
09:59 12.4 °C 8.7 °C 1025.4 hPa Calm     78.3% 0.0 mm 121 W/m2
10:04 12.4 °C 8.8 °C 1025.4 hPa Calm   4 km/h 78.7% 0.0 mm 123 W/m2
10:09 12.3 °C 8.8 °C 1025.4 hPa Calm     79.1% 0.0 mm 110 W/m2
10:14 12.3 °C 8.8 °C 1025.4 hPa ENE 0.3 km/h 4 km/h 79% 0.0 mm 103 W/m2
10:19 12.1 °C 8.6 °C 1025.4 hPa Calm     79.3% 0.0 mm 95 W/m2
10:24 12 °C 8.4 °C 1025.4 hPa Calm     78.3% 0.0 mm 106 W/m2
10:29 12.2 °C 8.3 °C 1025.4 hPa Calm     77.3% 0.0 mm 105 W/m2
10:34 12.4 °C 8.4 °C 1025.4 hPa Calm     76.3% 0.0 mm 103 W/m2
10:39 13.8 °C 9.3 °C 1025.4 hPa Calm   7.9 km/h 74.6% 0.0 mm 102 W/m2
10:44 14.1 °C 9.3 °C 1025.1 hPa ESE 0.9 km/h 7.9 km/h 73.1% 0.0 mm 104 W/m2
10:49 14.1 °C 9.1 °C 1025.1 hPa South 1.2 km/h 12.2 km/h 72% 0.0 mm 109 W/m2
10:54 14.2 °C 9.2 °C 1025.1 hPa South 1.2 km/h 12.2 km/h 72% 0.0 mm 114 W/m2
10:59 14.4 °C 9.6 °C 1025.1 hPa SSE 2.4 km/h 12.2 km/h 72.9% 0.0 mm 117 W/m2
11:04 14.5 °C 9.7 °C 1025.1 hPa SSE 0.5 km/h 7.9 km/h 73.1% 0.0 mm 122 W/m2
11:09 14.5 °C 9.7 °C 1025.1 hPa South 0.5 km/h 7.9 km/h 73.1% 0.0 mm 127 W/m2
11:14 14.5 °C 9.5 °C 1024.7 hPa SE 1.4 km/h 7.9 km/h 71.8% 0.0 mm 131 W/m2
11:19 14.9 °C 9.7 °C 1024.7 hPa Calm   7.9 km/h 71.2% 0.0 mm 137 W/m2
11:24 15 °C 9.3 °C 1024.7 hPa Calm   4 km/h 68.7% 0.0 mm 135 W/m2
11:29 15 °C 9.3 °C 1024.4 hPa SE 1.2 km/h 7.9 km/h 68.8% 0.0 mm 114 W/m2
11:34 15 °C 9.2 °C 1024.4 hPa SE 0.4 km/h 7.9 km/h 68.4% 0.0 mm 89 W/m2
11:39 14.9 °C 9 °C 1024.4 hPa ENE 0.4 km/h 7.9 km/h 67.9% 0.0 mm 88 W/m2
11:44 14.8 °C 9.1 °C 1024.0 hPa ESE 2.4 km/h 12.2 km/h 68.8% 0.0 mm 87 W/m2
11:49 14.7 °C 9 °C 1024.0 hPa SE 2.1 km/h 12.2 km/h 68.3% 0.0 mm 86 W/m2
11:54 14.7 °C 9 °C 1024.0 hPa East 0.4 km/h 7.9 km/h 68.6% 0.0 mm 120 W/m2
11:59 14.5 °C 9 °C 1024.0 hPa SE 0.9 km/h 7.9 km/h 69.7% 0.0 mm 184 W/m2
12:04 14.5 °C 8.9 °C 1024.0 hPa SE 3.1 km/h 12.2 km/h 69.1% 0.0 mm 202 W/m2
12:09 14.4 °C 8.8 °C 1023.7 hPa SSE 2.9 km/h 12.2 km/h 69% 0.0 mm 214 W/m2
12:14 14.5 °C 8.7 °C 1023.7 hPa SSE 0.3 km/h 7.9 km/h 68.1% 0.0 mm 220 W/m2
12:19 14.6 °C 8.6 °C 1023.4 hPa SE 0.8 km/h 7.9 km/h 67.6% 0.0 mm 246 W/m2
12:24 14.6 °C 8.8 °C 1023.4 hPa ESE 1.8 km/h 12.2 km/h 68% 0.0 mm 263 W/m2
12:29 14.6 °C 8.8 °C 1023.4 hPa SSE 1.3 km/h 12.2 km/h 68.3% 0.0 mm 274 W/m2
12:34 14.7 °C 8.5 °C 1023.4 hPa SSE 1 km/h 12.2 km/h 66.9% 0.0 mm 284 W/m2
12:39 14.6 °C 8.7 °C 1023.0 hPa SE 2.8 km/h 12.2 km/h 67.7% 0.0 mm 304 W/m2
12:44 14.5 °C 8.7 °C 1023.0 hPa SE 4.3 km/h 12.2 km/h 68.2% 0.0 mm 326 W/m2
12:49 14.5 °C 8.6 °C 1023.0 hPa Calm   7.9 km/h 67.6% 0.0 mm 338 W/m2
12:54 14.5 °C 8.8 °C 1023.0 hPa Calm     68.3% 0.0 mm 367 W/m2
12:59 14.5 °C 8.7 °C 1022.7 hPa SSE 1.1 km/h 12.2 km/h 68.4% 0.0 mm 354 W/m2
13:04 14.4 °C 8.5 °C 1022.7 hPa East 0.3 km/h 12.2 km/h 67.9% 0.0 mm 304 W/m2
13:09 14.4 °C 8.7 °C 1022.7 hPa NNW 0.1 km/h 4 km/h 68.4% 0.0 mm 378 W/m2
13:14 14.4 °C 8.7 °C 1022.7 hPa Calm     68.7% 0.0 mm 388 W/m2
13:19 15 °C 8.8 °C 1022.4 hPa SSE 4.9 km/h 12.2 km/h 66.8% 0.0 mm 392 W/m2
13:24 15.3 °C 9 °C 1022.4 hPa South 4.4 km/h 12.2 km/h 66% 0.0 mm 393 W/m2
13:29 15.2 °C 9 °C 1022.4 hPa SSE 4 km/h 12.2 km/h 66.4% 0.0 mm 400 W/m2
13:34 15.2 °C 8.9 °C 1022.4 hPa SSE 1.9 km/h 7.9 km/h 66% 0.0 mm 391 W/m2
13:39 15.2 °C 8.9 °C 1022.0 hPa Calm   7.9 km/h 66.3% 0.0 mm 315 W/m2
13:44 15 °C 8.8 °C 1022.0 hPa South 2.5 km/h 12.2 km/h 66.4% 0.0 mm 371 W/m2
13:49 14.9 °C 8.8 °C 1022.0 hPa Calm   7.9 km/h 66.7% 0.0 mm 388 W/m2
13:54 15 °C 8.5 °C 1021.7 hPa Calm     65.1% 0.0 mm 394 W/m2
13:59 15.3 °C 8.8 °C 1021.3 hPa Calm   4 km/h 65.1% 0.0 mm 396 W/m2
14:04 15.8 °C 9.4 °C 1021.7 hPa Calm     65.9% 0.0 mm 383 W/m2
14:09 15.7 °C 9.7 °C 1021.7 hPa SE 0.6 km/h 7.9 km/h 67.5% 0.0 mm 119 W/m2
14:14 15.5 °C 9.9 °C 1021.3 hPa ENE 2.2 km/h 12.2 km/h 69.2% 0.0 mm 94 W/m2
14:19 14.6 °C 9.7 °C 1021.3 hPa East 1.7 km/h 12.2 km/h 72.5% 0.0 mm 177 W/m2
14:24 13.4 °C 8.8 °C 1021.3 hPa SSE 0.2 km/h 7.9 km/h 73.3% 0.0 mm 86 W/m2
14:29 13.5 °C 9 °C 1021.3 hPa Calm   4 km/h 74% 0.0 mm 85 W/m2
14:34 13.5 °C 9 °C 1021.3 hPa SSE 1.6 km/h 7.9 km/h 74% 0.0 mm 94 W/m2
14:39 13.6 °C 9 °C 1021.3 hPa Calm   7.9 km/h 73.4% 0.0 mm 273 W/m2
14:43 13.8 °C 8.8 °C 1021.3 hPa SE 0.5 km/h 4 km/h 72% 0.0 mm 311 W/m2
14:49 14 °C 8.4 °C 1021.0 hPa SSE 0.3 km/h 12.2 km/h 69.4% 0.0 mm 320 W/m2
14:54 14.2 °C 8.3 °C 1021.0 hPa Calm   12.2 km/h 67.4% 0.0 mm 326 W/m2
14:59 15 °C 8.1 °C 1021.0 hPa Calm     63.6% 0.0 mm 314 W/m2
15:04 17.1 °C 10.2 °C 1021.0 hPa Calm     64.1% 0.0 mm 302 W/m2
15:09 16.8 °C 10.5 °C 1020.7 hPa Calm     66.6% 0.0 mm 88 W/m2
15:14 16.4 °C 10.9 °C 1020.7 hPa Calm     69.8% 0.0 mm 71 W/m2
15:19 15.5 °C 10.2 °C 1020.7 hPa Calm     71.1% 0.0 mm 61 W/m2
15:24 13.8 °C 9 °C 1020.7 hPa Calm     73% 0.0 mm 52 W/m2
15:29 13.7 °C 9.3 °C 1020.7 hPa Calm   4 km/h 75% 0.0 mm 44 W/m2
15:34 13.6 °C 9.4 °C 1020.7 hPa Calm     76% 0.0 mm 45 W/m2
15:39 13.2 °C 9.2 °C 1020.7 hPa Calm     76.9% 0.0 mm 47 W/m2
15:44 12.5 °C 8.8 °C 1020.7 hPa Calm     77.9% 0.0 mm 45 W/m2
15:49 12.5 °C 8.8 °C 1020.7 hPa Calm     78% 0.0 mm 45 W/m2
15:53 12.5 °C 8.8 °C 1020.7 hPa Calm     78.2% 0.0 mm 43 W/m2
15:59 12.4 °C 8.9 °C 1020.7 hPa Calm     79% 0.0 mm 40 W/m2
16:03 12.1 °C 8.6 °C 1020.3 hPa Calm     79% 0.0 mm 38 W/m2
16:09 12.1 °C 8.7 °C 1020.3 hPa Calm     79.3% 0.0 mm 36 W/m2
16:14 12.1 °C 8.8 °C 1020.0 hPa Calm     80% 0.0 mm 33 W/m2
16:19 11.9 °C 8.7 °C 1020.3 hPa Calm     80% 0.0 mm 31 W/m2
16:24 11.5 °C 8.3 °C 1020.3 hPa Calm     80.4% 0.0 mm 28 W/m2
16:29 11.5 °C 8.2 °C 1020.3 hPa Calm     80% 0.0 mm 26 W/m2
16:34 11.5 °C 8.4 °C 1020.0 hPa Calm     81% 0.0 mm 24 W/m2
16:39 11.4 °C 8.4 °C 1020.0 hPa Calm     81.9% 0.0 mm 21 W/m2
16:44 10.7 °C 7.8 °C 1020.0 hPa Calm     82.4% 0.0 mm 18 W/m2
16:49 10.7 °C 7.8 °C 1019.6 hPa Calm     82% 0.0 mm 14 W/m2
16:54 10.7 °C 7.7 °C 1020.0 hPa Calm     81.6% 0.0 mm 11 W/m2
16:59 10.7 °C 7.7 °C 1020.0 hPa Calm     81.6% 0.0 mm 8 W/m2
17:04 10.7 °C 7.7 °C 1020.0 hPa Calm     82% 0.0 mm 5 W/m2
17:09 10.6 °C 7.7 °C 1019.6 hPa Calm     82% 0.0 mm 3 W/m2
17:14 10.6 °C 7.6 °C 1019.6 hPa Calm     81.4% 0.0 mm 0 W/m2
17:19 10.5 °C 7.5 °C 1019.6 hPa Calm     81.7% 0.0 mm 0 W/m2
17:23 10.2 °C 7.3 °C 1019.6 hPa Calm     81.9% 0.0 mm 0 W/m2
17:29 10.1 °C 7.1 °C 1019.6 hPa Calm     81.5% 0.0 mm 0 W/m2
17:34 10.1 °C 7 °C 1020.0 hPa Calm     81% 0.0 mm 0 W/m2
17:39 10.1 °C 7 °C 1020.0 hPa Calm     81% 0.0 mm 0 W/m2
17:44 10.1 °C 7 °C 1020.0 hPa Calm     81% 0.0 mm 0 W/m2
17:49 10.1 °C 7 °C 1019.6 hPa Calm     81.3% 0.0 mm 0 W/m2
17:54 10 °C 7.1 °C 1019.6 hPa Calm     82% 0.0 mm 0 W/m2
17:59 10 °C 7.1 °C 1019.6 hPa Calm     82.4% 0.0 mm 0 W/m2
18:04 9.7 °C 6.8 °C 1019.6 hPa Calm     82% 0.0 mm 0 W/m2
18:09 9.7 °C 6.8 °C 1019.6 hPa West 0.2 km/h 4 km/h 82% 0.0 mm 0 W/m2
18:14 9.7 °C 7 °C 1019.6 hPa Calm   4 km/h 82.9% 0.0 mm 0 W/m2
18:19 9.7 °C 7.1 °C 1019.6 hPa Calm     84% 0.0 mm 0 W/m2
18:24 9.5 °C 6.8 °C 1019.6 hPa Calm     84% 0.0 mm 0 W/m2
18:29 9.4 °C 6.9 °C 1019.3 hPa Calm     84.4% 0.0 mm 0 W/m2
18:34 9.4 °C 6.8 °C 1019.3 hPa Calm     84.1% 0.0 mm 0 W/m2
18:39 9.4 °C 6.8 °C 1019.3 hPa Calm     84% 0.0 mm 0 W/m2
18:44 9.4 °C 6.8 °C 1019.3 hPa Calm     84% 0.0 mm 0 W/m2
18:49 9.4 °C 6.8 °C 1019.3 hPa Calm     83.5% 0.0 mm 0 W/m2
18:54 9.5 °C 6.5 °C 1019.3 hPa Calm     81.8% 0.0 mm 0 W/m2
18:59 9.5 °C 6.4 °C 1019.3 hPa Calm     81% 0.0 mm 0 W/m2
19:04 9.8 °C 6.6 °C 1019.3 hPa Calm     80.4% 0.0 mm 0 W/m2
19:09 9.9 °C 6.5 °C 1019.3 hPa Calm     79.6% 0.0 mm 0 W/m2
19:14 9.9 °C 6.4 °C 1019.3 hPa WSW 0.4 km/h 4 km/h 79% 0.0 mm 0 W/m2
19:19 9.9 °C 6.4 °C 1019.3 hPa Calm   4 km/h 78.7% 0.0 mm 0 W/m2
19:24 10.2 °C 6.5 °C 1019.3 hPa Calm     78.1% 0.0 mm 0 W/m2
19:29 10.2 °C 6.5 °C 1019.3 hPa Calm     78% 0.0 mm 0 W/m2
19:34 10.1 °C 7.1 °C 1019.6 hPa Calm   4 km/h 81.8% 0.0 mm 0 W/m2
19:39 9.9 °C 7.3 °C 1019.6 hPa Calm   4 km/h 84.1% 0.0 mm 0 W/m2
19:44 8.9 °C 6.6 °C 1019.6 hPa Calm     85.6% 0.0 mm 0 W/m2
19:49 8.5 °C 6.4 °C 1019.3 hPa Calm     86.7% 0.0 mm 0 W/m2
19:54 8.5 °C 6.4 °C 1019.3 hPa Calm     86.7% 0.0 mm 0 W/m2
19:59 8.5 °C 6.2 °C 1019.3 hPa Calm   4 km/h 85.7% 0.0 mm 0 W/m2
20:04 9 °C 6.5 °C 1019.3 hPa Calm   4 km/h 84.5% 0.0 mm 0 W/m2
20:09 9 °C 6.7 °C 1019.3 hPa Calm   4 km/h 85.6% 0.0 mm 0 W/m2
20:14 8.9 °C 6.7 °C 1019.3 hPa Calm   4 km/h 86% 0.0 mm 0 W/m2
20:19 8.8 °C 6.6 °C 1019.3 hPa WNW 0.2 km/h 4 km/h 85.8% 0.0 mm 0 W/m2
20:24 8.7 °C 6.3 °C 1019.0 hPa NW 0.2 km/h 7.9 km/h 85% 0.0 mm 0 W/m2
20:29 8.7 °C 6.2 °C 1019.0 hPa NW 1.1 km/h 7.9 km/h 84.8% 0.0 mm 0 W/m2
20:34 8.7 °C 6.4 °C 1019.0 hPa Calm   4 km/h 85.7% 0.0 mm 0 W/m2
20:39 8.7 °C 6.5 °C 1019.3 hPa Calm     86.1% 0.0 mm 0 W/m2
20:44 8.9 °C 6.4 °C 1019.0 hPa Calm     84.7% 0.0 mm 0 W/m2
20:49 9 °C 6.4 °C 1019.0 hPa NNW 0.3 km/h 4 km/h 84.3% 0.0 mm 0 W/m2
20:54 8.9 °C 6.5 °C 1019.0 hPa Calm     85% 0.0 mm 0 W/m2
20:59 8.8 °C 6.7 °C 1019.0 hPa Calm     86.3% 0.0 mm 0 W/m2
21:04 8.6 °C 6.6 °C 1019.0 hPa Calm     87% 0.0 mm 0 W/m2
21:09 8.2 °C 6.2 °C 1019.3 hPa Calm     87% 0.0 mm 0 W/m2
21:14 8.3 °C 6.1 °C 1019.3 hPa Calm   4 km/h 86.3% 0.0 mm 0 W/m2
21:19 8.3 °C 6.2 °C 1019.3 hPa Calm   4 km/h 86.5% 0.0 mm 0 W/m2
21:24 8.5 °C 6.5 °C 1019.0 hPa WNW 0.3 km/h 4 km/h 86.9% 0.0 mm 0 W/m2
21:29 8.5 °C 6.5 °C 1019.0 hPa Calm   4 km/h 87% 0.0 mm 0 W/m2
21:34 8.5 °C 6.6 °C 1019.0 hPa Calm     88.1% 0.0 mm 0 W/m2
21:39 8.4 °C 6.6 °C 1019.0 hPa Calm     88.1% 0.0 mm 0 W/m2
21:44 8.4 °C 6.4 °C 1019.0 hPa Calm     87.3% 0.0 mm 0 W/m2
21:49 8.4 °C 6.5 °C 1019.0 hPa NNE 0.2 km/h 4 km/h 88% 0.0 mm 0 W/m2
21:54 8.3 °C 6.4 °C 1019.0 hPa SW 0.1 km/h 4 km/h 88% 0.0 mm 0 W/m2
21:59 8.3 °C 6.5 °C 1019.0 hPa WNW 0.7 km/h 7.9 km/h 88.4% 0.0 mm 0 W/m2
22:04 8.2 °C 6.5 °C 1019.0 hPa Calm   4 km/h 89% 0.0 mm 0 W/m2
22:09 8.1 °C 6.5 °C 1019.0 hPa NW 0.3 km/h 4 km/h 89.5% 0.0 mm 0 W/m2
22:14 8.1 °C 6.4 °C 1019.0 hPa Calm     89% 0.0 mm 0 W/m2
22:19 8.1 °C 6.6 °C 1019.3 hPa Calm     89.8% 0.0 mm 0 W/m2
22:24 8 °C 6.5 °C 1019.0 hPa Calm     90.1% 0.0 mm 0 W/m2
22:29 7.9 °C 6.4 °C 1019.0 hPa Calm   4 km/h 90.5% 0.0 mm 0 W/m2
22:34 7.9 °C 6.4 °C 1019.3 hPa Calm     90.3% 0.0 mm 0 W/m2
22:39 7.9 °C 6.5 °C 1019.0 hPa Calm     90.8% 0.0 mm 0 W/m2
22:43 7.7 °C 6.3 °C 1019.0 hPa Calm     90.9% 0.0 mm 0 W/m2
22:49 7.6 °C 6.3 °C 1019.0 hPa Calm     91.7% 0.0 mm 0 W/m2
22:54 7.6 °C 6.3 °C 1019.0 hPa NW 0.3 km/h 4 km/h 91.2% 0.0 mm 0 W/m2
22:59 7.6 °C 6.2 °C 1019.0 hPa WSW 0.3 km/h 4 km/h 91% 0.0 mm 0 W/m2
23:04 7.5 °C 6.1 °C 1019.0 hPa Calm     91% 0.0 mm 0 W/m2
23:09 7.4 °C 6.2 °C 1019.0 hPa Calm     92.1% 0.0 mm 0 W/m2
23:14 7.3 °C 6.3 °C 1019.0 hPa Calm     93% 0.0 mm 0 W/m2
23:19 7.3 °C 6.3 °C 1019.0 hPa Calm     93.6% 0.0 mm 0 W/m2
23:24 6.7 °C 6 °C 1019.0 hPa Calm     94.9% 0.0 mm 0 W/m2
23:29 6.2 °C 5.6 °C 1019.0 hPa Calm     96% 0.0 mm 0 W/m2
23:34 6.2 °C 5.6 °C 1019.0 hPa Calm     95.8% 0.0 mm 0 W/m2
23:39 6.2 °C 5.5 °C 1019.0 hPa Calm     95% 0.0 mm 0 W/m2
23:44 6.3 °C 5.7 °C 1018.6 hPa Calm     95% 0.0 mm 0 W/m2
23:49 6.5 °C 5.8 °C 1018.6 hPa Calm     94.7% 0.0 mm 0 W/m2
23:54 6.6 °C 5.7 °C 1018.6 hPa Calm     93.8% 0.0 mm 0 W/m2
23:59 6.6 °C 5.8 °C 1019.0 hPa Calm     94.4% 0.0 mm 0 W/m2
Juneau County Weather
Compliments of Weather Underground - 2 mb